sensor_id;sensor_type;location;lat;lon;timestamp;P1;durP1;ratioP1;P2;durP2;ratioP2
12425;SDS011;6277;49.824;9.562;2024-02-15T00:00:20;1.40;;;1.10;;
12425;SDS011;6277;49.824;9.562;2024-02-15T00:02:47;1.02;;;0.95;;
12425;SDS011;6277;49.824;9.562;2024-02-15T00:05:13;1.98;;;1.10;;
12425;SDS011;6277;49.824;9.562;2024-02-15T00:07:42;1.42;;;0.90;;
12425;SDS011;6277;49.824;9.562;2024-02-15T00:10:08;1.50;;;1.00;;
12425;SDS011;6277;49.824;9.562;2024-02-15T00:12:34;0.85;;;0.70;;
12425;SDS011;6277;49.824;9.562;2024-02-15T00:15:00;1.08;;;0.80;;
12425;SDS011;6277;49.824;9.562;2024-02-15T00:17:27;1.40;;;0.73;;
12425;SDS011;6277;49.824;9.562;2024-02-15T00:19:54;0.77;;;0.77;;
12425;SDS011;6277;49.824;9.562;2024-02-15T00:22:20;1.15;;;0.70;;
12425;SDS011;6277;49.824;9.562;2024-02-15T00:24:46;1.73;;;1.10;;
12425;SDS011;6277;49.824;9.562;2024-02-15T00:27:13;2.40;;;1.48;;
12425;SDS011;6277;49.824;9.562;2024-02-15T00:29:42;2.08;;;1.42;;
12425;SDS011;6277;49.824;9.562;2024-02-15T00:32:08;1.70;;;1.30;;
12425;SDS011;6277;49.824;9.562;2024-02-15T00:34:35;2.03;;;1.17;;
12425;SDS011;6277;49.824;9.562;2024-02-15T00:37:03;2.65;;;1.30;;
12425;SDS011;6277;49.824;9.562;2024-02-15T00:39:29;5.38;;;1.70;;
12425;SDS011;6277;49.824;9.562;2024-02-15T00:41:56;1.67;;;1.20;;
12425;SDS011;6277;49.824;9.562;2024-02-15T00:44:22;2.03;;;1.20;;
12425;SDS011;6277;49.824;9.562;2024-02-15T00:46:47;2.20;;;1.20;;
12425;SDS011;6277;49.824;9.562;2024-02-15T00:49:13;2.88;;;1.08;;
12425;SDS011;6277;49.824;9.562;2024-02-15T00:51:39;1.42;;;0.80;;
12425;SDS011;6277;49.824;9.562;2024-02-15T00:54:04;2.35;;;1.15;;
12425;SDS011;6277;49.824;9.562;2024-02-15T00:56:30;1.95;;;0.98;;
12425;SDS011;6277;49.824;9.562;2024-02-15T00:58:58;1.60;;;1.08;;
12425;SDS011;6277;49.824;9.562;2024-02-15T01:01:25;1.20;;;0.73;;
12425;SDS011;6277;49.824;9.562;2024-02-15T01:03:51;1.30;;;0.95;;
12425;SDS011;6277;49.824;9.562;2024-02-15T01:06:17;1.25;;;1.02;;
12425;SDS011;6277;49.824;9.562;2024-02-15T01:08:43;2.35;;;1.10;;
12425;SDS011;6277;49.824;9.562;2024-02-15T01:11:08;2.00;;;1.10;;
12425;SDS011;6277;49.824;9.562;2024-02-15T01:13:34;1.98;;;0.93;;
12425;SDS011;6277;49.824;9.562;2024-02-15T01:16:00;1.35;;;1.00;;
12425;SDS011;6277;49.824;9.562;2024-02-15T01:18:28;0.93;;;0.80;;
12425;SDS011;6277;49.824;9.562;2024-02-15T01:20:54;2.28;;;0.90;;
12425;SDS011;6277;49.824;9.562;2024-02-15T01:23:20;1.40;;;0.85;;
12425;SDS011;6277;49.824;9.562;2024-02-15T01:25:47;1.10;;;0.77;;
12425;SDS011;6277;49.824;9.562;2024-02-15T01:28:13;1.65;;;0.88;;
12425;SDS011;6277;49.824;9.562;2024-02-15T01:30:39;1.08;;;0.90;;
12425;SDS011;6277;49.824;9.562;2024-02-15T01:33:04;0.93;;;0.80;;
12425;SDS011;6277;49.824;9.562;2024-02-15T01:35:30;0.82;;;0.82;;
12425;SDS011;6277;49.824;9.562;2024-02-15T01:37:56;1.33;;;1.10;;
12425;SDS011;6277;49.824;9.562;2024-02-15T01:40:21;1.25;;;0.95;;
12425;SDS011;6277;49.824;9.562;2024-02-15T01:42:47;1.63;;;1.40;;
12425;SDS011;6277;49.824;9.562;2024-02-15T01:45:14;5.13;;;1.30;;
12425;SDS011;6277;49.824;9.562;2024-02-15T01:47:40;2.05;;;1.80;;
12425;SDS011;6277;49.824;9.562;2024-02-15T01:50:07;1.77;;;1.45;;
12425;SDS011;6277;49.824;9.562;2024-02-15T01:52:35;1.95;;;1.38;;
12425;SDS011;6277;49.824;9.562;2024-02-15T01:55:02;1.20;;;1.10;;
12425;SDS011;6277;49.824;9.562;2024-02-15T01:57:33;0.80;;;0.73;;
12425;SDS011;6277;49.824;9.562;2024-02-15T02:00:00;1.35;;;1.15;;
12425;SDS011;6277;49.824;9.562;2024-02-15T02:02:26;1.10;;;1.00;;
12425;SDS011;6277;49.824;9.562;2024-02-15T02:04:57;1.70;;;1.40;;
12425;SDS011;6277;49.824;9.562;2024-02-15T02:07:23;2.47;;;1.40;;
12425;SDS011;6277;49.824;9.562;2024-02-15T02:09:48;2.28;;;1.30;;
12425;SDS011;6277;49.824;9.562;2024-02-15T02:12:14;1.88;;;1.33;;
12425;SDS011;6277;49.824;9.562;2024-02-15T02:14:40;2.10;;;1.10;;
12425;SDS011;6277;49.824;9.562;2024-02-15T02:17:15;1.83;;;1.00;;
12425;SDS011;6277;49.824;9.562;2024-02-15T02:19:43;1.77;;;1.10;;
12425;SDS011;6277;49.824;9.562;2024-02-15T02:22:09;0.93;;;0.80;;
12425;SDS011;6277;49.824;9.562;2024-02-15T02:24:36;2.30;;;0.93;;
12425;SDS011;6277;49.824;9.562;2024-02-15T02:27:18;1.48;;;1.00;;
12425;SDS011;6277;49.824;9.562;2024-02-15T02:29:45;0.90;;;0.70;;
12425;SDS011;6277;49.824;9.562;2024-02-15T02:32:11;1.42;;;0.88;;
12425;SDS011;6277;49.824;9.562;2024-02-15T02:34:37;1.48;;;1.00;;
12425;SDS011;6277;49.824;9.562;2024-02-15T02:37:03;3.53;;;1.05;;
12425;SDS011;6277;49.824;9.562;2024-02-15T02:39:30;1.38;;;0.90;;
12425;SDS011;6277;49.824;9.562;2024-02-15T02:41:56;1.23;;;0.70;;
12425;SDS011;6277;49.824;9.562;2024-02-15T02:44:22;0.77;;;0.77;;
12425;SDS011;6277;49.824;9.562;2024-02-15T02:46:48;3.28;;;1.10;;
12425;SDS011;6277;49.824;9.562;2024-02-15T02:49:13;1.70;;;1.10;;
12425;SDS011;6277;49.824;9.562;2024-02-15T02:51:39;1.38;;;0.80;;
12425;SDS011;6277;49.824;9.562;2024-02-15T02:54:04;0.80;;;0.73;;
12425;SDS011;6277;49.824;9.562;2024-02-15T02:56:31;1.55;;;1.08;;
12425;SDS011;6277;49.824;9.562;2024-02-15T02:58:58;1.73;;;0.80;;
12425;SDS011;6277;49.824;9.562;2024-02-15T03:01:23;0.98;;;0.77;;
12425;SDS011;6277;49.824;9.562;2024-02-15T03:03:52;2.60;;;0.60;;
12425;SDS011;6277;49.824;9.562;2024-02-15T03:06:21;14.70;;;1.30;;
12425;SDS011;6277;49.824;9.562;2024-02-15T03:08:49;1.20;;;0.88;;
12425;SDS011;6277;49.824;9.562;2024-02-15T03:11:19;1.40;;;0.90;;
12425;SDS011;6277;49.824;9.562;2024-02-15T03:13:44;1.83;;;0.90;;
12425;SDS011;6277;49.824;9.562;2024-02-15T03:16:10;2.58;;;1.27;;
12425;SDS011;6277;49.824;9.562;2024-02-15T03:18:36;1.88;;;0.63;;
12425;SDS011;6277;49.824;9.562;2024-02-15T03:21:01;1.77;;;0.82;;
12425;SDS011;6277;49.824;9.562;2024-02-15T03:23:27;2.00;;;0.70;;
12425;SDS011;6277;49.824;9.562;2024-02-15T03:25:53;0.95;;;0.80;;
12425;SDS011;6277;49.824;9.562;2024-02-15T03:28:19;0.73;;;0.60;;
12425;SDS011;6277;49.824;9.562;2024-02-15T03:30:46;1.45;;;0.98;;
12425;SDS011;6277;49.824;9.562;2024-02-15T03:33:11;1.17;;;1.00;;
12425;SDS011;6277;49.824;9.562;2024-02-15T03:35:38;1.85;;;1.00;;
12425;SDS011;6277;49.824;9.562;2024-02-15T03:38:04;0.95;;;0.90;;
12425;SDS011;6277;49.824;9.562;2024-02-15T03:40:30;1.52;;;0.68;;
12425;SDS011;6277;49.824;9.562;2024-02-15T03:42:57;1.40;;;1.00;;
12425;SDS011;6277;49.824;9.562;2024-02-15T03:45:23;1.30;;;1.08;;
12425;SDS011;6277;49.824;9.562;2024-02-15T03:47:50;1.67;;;0.80;;
12425;SDS011;6277;49.824;9.562;2024-02-15T03:50:16;1.80;;;0.88;;
12425;SDS011;6277;49.824;9.562;2024-02-15T03:52:43;1.10;;;1.00;;
12425;SDS011;6277;49.824;9.562;2024-02-15T03:55:10;1.40;;;0.90;;
12425;SDS011;6277;49.824;9.562;2024-02-15T03:57:37;1.30;;;0.85;;
12425;SDS011;6277;49.824;9.562;2024-02-15T04:00:06;1.60;;;1.05;;
12425;SDS011;6277;49.824;9.562;2024-02-15T04:02:33;1.90;;;0.88;;
12425;SDS011;6277;49.824;9.562;2024-02-15T04:05:00;1.42;;;1.13;;
12425;SDS011;6277;49.824;9.562;2024-02-15T04:07:26;2.85;;;1.25;;
12425;SDS011;6277;49.824;9.562;2024-02-15T04:09:52;1.13;;;0.82;;
12425;SDS011;6277;49.824;9.562;2024-02-15T04:12:17;1.08;;;0.98;;
12425;SDS011;6277;49.824;9.562;2024-02-15T04:14:43;2.30;;;1.10;;
12425;SDS011;6277;49.824;9.562;2024-02-15T04:17:12;1.10;;;1.00;;
12425;SDS011;6277;49.824;9.562;2024-02-15T04:19:39;2.90;;;1.90;;
12425;SDS011;6277;49.824;9.562;2024-02-15T04:22:05;5.20;;;1.20;;
12425;SDS011;6277;49.824;9.562;2024-02-15T04:24:35;3.47;;;1.60;;
12425;SDS011;6277;49.824;9.562;2024-02-15T04:27:04;3.22;;;1.45;;
12425;SDS011;6277;49.824;9.562;2024-02-15T04:29:32;2.30;;;1.23;;
12425;SDS011;6277;49.824;9.562;2024-02-15T04:31:58;2.92;;;1.60;;
12425;SDS011;6277;49.824;9.562;2024-02-15T04:34:24;3.42;;;1.77;;
12425;SDS011;6277;49.824;9.562;2024-02-15T04:36:49;2.17;;;1.58;;
12425;SDS011;6277;49.824;9.562;2024-02-15T04:39:16;2.05;;;1.55;;
12425;SDS011;6277;49.824;9.562;2024-02-15T04:41:52;2.20;;;1.60;;
12425;SDS011;6277;49.824;9.562;2024-02-15T04:44:18;3.40;;;2.20;;
12425;SDS011;6277;49.824;9.562;2024-02-15T04:46:48;2.20;;;1.70;;
12425;SDS011;6277;49.824;9.562;2024-02-15T04:49:14;2.33;;;1.73;;
12425;SDS011;6277;49.824;9.562;2024-02-15T04:51:40;2.78;;;1.83;;
12425;SDS011;6277;49.824;9.562;2024-02-15T04:54:09;3.10;;;2.00;;
12425;SDS011;6277;49.824;9.562;2024-02-15T04:56:41;3.05;;;1.98;;
12425;SDS011;6277;49.824;9.562;2024-02-15T04:59:08;2.75;;;1.98;;
12425;SDS011;6277;49.824;9.562;2024-02-15T05:01:36;3.60;;;2.13;;
12425;SDS011;6277;49.824;9.562;2024-02-15T05:04:02;2.88;;;1.60;;
12425;SDS011;6277;49.824;9.562;2024-02-15T05:06:32;1.95;;;1.52;;
12425;SDS011;6277;49.824;9.562;2024-02-15T05:08:58;2.58;;;1.77;;
12425;SDS011;6277;49.824;9.562;2024-02-15T05:11:25;2.55;;;1.60;;
12425;SDS011;6277;49.824;9.562;2024-02-15T05:13:51;2.05;;;1.55;;
12425;SDS011;6277;49.824;9.562;2024-02-15T05:16:17;4.40;;;1.90;;
12425;SDS011;6277;49.824;9.562;2024-02-15T05:18:43;2.20;;;1.48;;
12425;SDS011;6277;49.824;9.562;2024-02-15T05:21:10;1.55;;;1.42;;
12425;SDS011;6277;49.824;9.562;2024-02-15T05:23:36;3.25;;;1.75;;
12425;SDS011;6277;49.824;9.562;2024-02-15T05:26:04;3.50;;;1.90;;
12425;SDS011;6277;49.824;9.562;2024-02-15T05:28:30;3.28;;;2.10;;
12425;SDS011;6277;49.824;9.562;2024-02-15T05:31:16;5.07;;;2.65;;
12425;SDS011;6277;49.824;9.562;2024-02-15T05:33:45;4.75;;;2.60;;
12425;SDS011;6277;49.824;9.562;2024-02-15T05:36:15;3.10;;;2.42;;
12425;SDS011;6277;49.824;9.562;2024-02-15T05:38:46;4.15;;;2.53;;
12425;SDS011;6277;49.824;9.562;2024-02-15T05:41:12;3.97;;;2.63;;
12425;SDS011;6277;49.824;9.562;2024-02-15T05:43:38;3.42;;;2.30;;
12425;SDS011;6277;49.824;9.562;2024-02-15T05:46:06;2.88;;;1.80;;
12425;SDS011;6277;49.824;9.562;2024-02-15T05:48:32;2.08;;;1.40;;
12425;SDS011;6277;49.824;9.562;2024-02-15T05:51:01;2.28;;;1.50;;
12425;SDS011;6277;49.824;9.562;2024-02-15T05:53:30;3.03;;;1.40;;
12425;SDS011;6277;49.824;9.562;2024-02-15T05:56:01;3.08;;;1.40;;
12425;SDS011;6277;49.824;9.562;2024-02-15T05:58:29;2.42;;;1.45;;
12425;SDS011;6277;49.824;9.562;2024-02-15T06:00:55;3.20;;;1.73;;
12425;SDS011;6277;49.824;9.562;2024-02-15T06:03:25;2.60;;;1.08;;
12425;SDS011;6277;49.824;9.562;2024-02-15T06:05:51;2.35;;;1.38;;
12425;SDS011;6277;49.824;9.562;2024-02-15T06:08:17;2.85;;;1.35;;
12425;SDS011;6277;49.824;9.562;2024-02-15T06:10:43;1.75;;;1.23;;
12425;SDS011;6277;49.824;9.562;2024-02-15T06:13:09;4.03;;;1.60;;
12425;SDS011;6277;49.824;9.562;2024-02-15T06:15:35;2.35;;;1.40;;
12425;SDS011;6277;49.824;9.562;2024-02-15T06:18:01;1.92;;;1.20;;
12425;SDS011;6277;49.824;9.562;2024-02-15T06:20:28;2.33;;;1.50;;
12425;SDS011;6277;49.824;9.562;2024-02-15T06:22:55;2.33;;;1.45;;
12425;SDS011;6277;49.824;9.562;2024-02-15T06:25:21;6.28;;;1.70;;
12425;SDS011;6277;49.824;9.562;2024-02-15T06:27:48;4.40;;;1.85;;
12425;SDS011;6277;49.824;9.562;2024-02-15T06:30:16;3.28;;;1.85;;
12425;SDS011;6277;49.824;9.562;2024-02-15T06:33:00;2.50;;;1.90;;
12425;SDS011;6277;49.824;9.562;2024-02-15T06:35:44;3.28;;;1.95;;
12425;SDS011;6277;49.824;9.562;2024-02-15T06:38:28;2.40;;;1.60;;
12425;SDS011;6277;49.824;9.562;2024-02-15T06:41:12;5.00;;;2.53;;
12425;SDS011;6277;49.824;9.562;2024-02-15T06:43:38;4.65;;;2.80;;
12425;SDS011;6277;49.824;9.562;2024-02-15T06:46:08;4.68;;;3.22;;
12425;SDS011;6277;49.824;9.562;2024-02-15T06:48:34;5.30;;;3.25;;
12425;SDS011;6277;49.824;9.562;2024-02-15T06:51:00;4.20;;;2.78;;
12425;SDS011;6277;49.824;9.562;2024-02-15T06:53:25;4.75;;;3.30;;
12425;SDS011;6277;49.824;9.562;2024-02-15T06:55:51;5.57;;;3.53;;
12425;SDS011;6277;49.824;9.562;2024-02-15T06:58:17;5.95;;;3.58;;
12425;SDS011;6277;49.824;9.562;2024-02-15T07:00:43;6.70;;;3.90;;
12425;SDS011;6277;49.824;9.562;2024-02-15T07:03:09;5.40;;;3.53;;
12425;SDS011;6277;49.824;9.562;2024-02-15T07:05:36;5.68;;;4.35;;
12425;SDS011;6277;49.824;9.562;2024-02-15T07:08:03;6.97;;;4.43;;
12425;SDS011;6277;49.824;9.562;2024-02-15T07:10:30;8.90;;;4.50;;
12425;SDS011;6277;49.824;9.562;2024-02-15T07:12:56;6.82;;;4.57;;
12425;SDS011;6277;49.824;9.562;2024-02-15T07:15:22;6.30;;;4.30;;
12425;SDS011;6277;49.824;9.562;2024-02-15T07:17:48;5.03;;;4.10;;
12425;SDS011;6277;49.824;9.562;2024-02-15T07:20:13;5.95;;;5.00;;
12425;SDS011;6277;49.824;9.562;2024-02-15T07:22:42;5.25;;;4.32;;
12425;SDS011;6277;49.824;9.562;2024-02-15T07:25:10;6.78;;;4.80;;
12425;SDS011;6277;49.824;9.562;2024-02-15T07:27:36;5.97;;;4.60;;
12425;SDS011;6277;49.824;9.562;2024-02-15T07:30:01;6.43;;;4.60;;
12425;SDS011;6277;49.824;9.562;2024-02-15T07:32:29;6.55;;;4.22;;
12425;SDS011;6277;49.824;9.562;2024-02-15T07:34:56;5.18;;;4.05;;
12425;SDS011;6277;49.824;9.562;2024-02-15T07:37:22;5.38;;;3.80;;
12425;SDS011;6277;49.824;9.562;2024-02-15T07:39:51;5.40;;;3.22;;
12425;SDS011;6277;49.824;9.562;2024-02-15T07:42:17;5.90;;;3.13;;
12425;SDS011;6277;49.824;9.562;2024-02-15T07:44:42;7.78;;;4.25;;
12425;SDS011;6277;49.824;9.562;2024-02-15T07:47:08;5.20;;;3.40;;
12425;SDS011;6277;49.824;9.562;2024-02-15T07:49:35;5.85;;;3.45;;
12425;SDS011;6277;49.824;9.562;2024-02-15T07:52:01;5.15;;;3.53;;
12425;SDS011;6277;49.824;9.562;2024-02-15T07:54:29;5.40;;;3.63;;
12425;SDS011;6277;49.824;9.562;2024-02-15T07:56:55;5.38;;;3.35;;
12425;SDS011;6277;49.824;9.562;2024-02-15T07:59:21;5.35;;;3.50;;
12425;SDS011;6277;49.824;9.562;2024-02-15T08:01:47;5.88;;;3.25;;
12425;SDS011;6277;49.824;9.562;2024-02-15T08:04:15;5.32;;;3.47;;
12425;SDS011;6277;49.824;9.562;2024-02-15T08:06:42;3.75;;;3.00;;
12425;SDS011;6277;49.824;9.562;2024-02-15T08:09:08;4.70;;;2.92;;
12425;SDS011;6277;49.824;9.562;2024-02-15T08:11:38;3.55;;;3.05;;
12425;SDS011;6277;49.824;9.562;2024-02-15T08:14:07;3.80;;;3.00;;
12425;SDS011;6277;49.824;9.562;2024-02-15T08:16:35;5.05;;;3.00;;
12425;SDS011;6277;49.824;9.562;2024-02-15T08:19:02;4.00;;;3.00;;
12425;SDS011;6277;49.824;9.562;2024-02-15T08:21:30;5.00;;;2.92;;
12425;SDS011;6277;49.824;9.562;2024-02-15T08:24:06;5.78;;;2.90;;
12425;SDS011;6277;49.824;9.562;2024-02-15T08:28:57;5.75;;;3.10;;
12425;SDS011;6277;49.824;9.562;2024-02-15T08:31:22;5.57;;;3.10;;
12425;SDS011;6277;49.824;9.562;2024-02-15T08:33:48;4.63;;;2.88;;
12425;SDS011;6277;49.824;9.562;2024-02-15T08:36:14;2.85;;;2.13;;
12425;SDS011;6277;49.824;9.562;2024-02-15T08:38:39;3.30;;;2.22;;
12425;SDS011;6277;49.824;9.562;2024-02-15T08:41:06;3.88;;;2.30;;
12425;SDS011;6277;49.824;9.562;2024-02-15T08:43:33;4.75;;;2.40;;
12425;SDS011;6277;49.824;9.562;2024-02-15T08:45:59;3.30;;;2.45;;
12425;SDS011;6277;49.824;9.562;2024-02-15T08:48:24;3.30;;;2.22;;
12425;SDS011;6277;49.824;9.562;2024-02-15T08:50:53;4.68;;;2.38;;
12425;SDS011;6277;49.824;9.562;2024-02-15T08:53:19;2.70;;;1.98;;
12425;SDS011;6277;49.824;9.562;2024-02-15T08:55:45;2.40;;;2.05;;
12425;SDS011;6277;49.824;9.562;2024-02-15T08:58:10;3.63;;;2.35;;
12425;SDS011;6277;49.824;9.562;2024-02-15T09:00:36;3.35;;;2.20;;
12425;SDS011;6277;49.824;9.562;2024-02-15T09:03:06;3.58;;;2.10;;
12425;SDS011;6277;49.824;9.562;2024-02-15T09:05:32;3.40;;;2.13;;
12425;SDS011;6277;49.824;9.562;2024-02-15T09:07:57;4.85;;;2.40;;
12425;SDS011;6277;49.824;9.562;2024-02-15T09:10:23;3.00;;;2.08;;
12425;SDS011;6277;49.824;9.562;2024-02-15T09:12:48;2.22;;;1.60;;
12425;SDS011;6277;49.824;9.562;2024-02-15T09:15:14;2.63;;;1.90;;
12425;SDS011;6277;49.824;9.562;2024-02-15T09:17:40;3.03;;;1.92;;
12425;SDS011;6277;49.824;9.562;2024-02-15T09:20:14;4.85;;;2.38;;
12425;SDS011;6277;49.824;9.562;2024-02-15T09:22:41;3.15;;;1.83;;
12425;SDS011;6277;49.824;9.562;2024-02-15T09:25:08;4.40;;;1.98;;
12425;SDS011;6277;49.824;9.562;2024-02-15T09:27:35;3.90;;;2.00;;
12425;SDS011;6277;49.824;9.562;2024-02-15T09:30:01;2.70;;;1.60;;
12425;SDS011;6277;49.824;9.562;2024-02-15T09:32:27;3.45;;;1.83;;
12425;SDS011;6277;49.824;9.562;2024-02-15T09:34:52;2.33;;;1.85;;
12425;SDS011;6277;49.824;9.562;2024-02-15T09:37:18;2.95;;;1.40;;
12425;SDS011;6277;49.824;9.562;2024-02-15T09:39:43;2.05;;;1.45;;
12425;SDS011;6277;49.824;9.562;2024-02-15T09:42:09;2.78;;;1.80;;
12425;SDS011;6277;49.824;9.562;2024-02-15T09:44:35;3.83;;;1.70;;
12425;SDS011;6277;49.824;9.562;2024-02-15T09:47:04;3.15;;;1.70;;
12425;SDS011;6277;49.824;9.562;2024-02-15T09:49:36;3.72;;;1.58;;
12425;SDS011;6277;49.824;9.562;2024-02-15T09:52:04;4.38;;;1.65;;
12425;SDS011;6277;49.824;9.562;2024-02-15T09:54:32;1.95;;;1.50;;
12425;SDS011;6277;49.824;9.562;2024-02-15T09:57:01;2.20;;;1.35;;
12425;SDS011;6277;49.824;9.562;2024-02-15T09:59:29;2.25;;;1.42;;
12425;SDS011;6277;49.824;9.562;2024-02-15T10:01:57;2.42;;;1.40;;
12425;SDS011;6277;49.824;9.562;2024-02-15T10:04:24;2.60;;;1.23;;
12425;SDS011;6277;49.824;9.562;2024-02-15T10:06:50;2.03;;;1.45;;
12425;SDS011;6277;49.824;9.562;2024-02-15T10:09:29;3.22;;;1.30;;
12425;SDS011;6277;49.824;9.562;2024-02-15T10:11:55;2.33;;;1.40;;
12425;SDS011;6277;49.824;9.562;2024-02-15T10:14:22;3.25;;;1.17;;
12425;SDS011;6277;49.824;9.562;2024-02-15T10:16:48;3.05;;;1.50;;
12425;SDS011;6277;49.824;9.562;2024-02-15T10:19:15;2.80;;;1.35;;
12425;SDS011;6277;49.824;9.562;2024-02-15T10:21:42;1.77;;;1.10;;
12425;SDS011;6277;49.824;9.562;2024-02-15T10:24:08;2.28;;;1.48;;
12425;SDS011;6277;49.824;9.562;2024-02-15T10:26:34;2.50;;;1.05;;
12425;SDS011;6277;49.824;9.562;2024-02-15T10:31:33;3.97;;;1.38;;
12425;SDS011;6277;49.824;9.562;2024-02-15T10:34:19;1.90;;;0.88;;
12425;SDS011;6277;49.824;9.562;2024-02-15T10:36:45;1.73;;;1.00;;
12425;SDS011;6277;49.824;9.562;2024-02-15T10:41:51;2.35;;;0.90;;
12425;SDS011;6277;49.824;9.562;2024-02-15T10:44:22;1.55;;;0.73;;
12425;SDS011;6277;49.824;9.562;2024-02-15T10:46:49;5.80;;;0.82;;
12425;SDS011;6277;49.824;9.562;2024-02-15T10:51:45;2.30;;;1.00;;
12425;SDS011;6277;49.824;9.562;2024-02-15T10:54:23;2.15;;;1.08;;
12425;SDS011;6277;49.824;9.562;2024-02-15T10:57:03;1.58;;;0.90;;
12425;SDS011;6277;49.824;9.562;2024-02-15T10:59:31;3.17;;;1.23;;
12425;SDS011;6277;49.824;9.562;2024-02-15T11:02:49;2.38;;;0.82;;
12425;SDS011;6277;49.824;9.562;2024-02-15T11:04:58;2.13;;;1.00;;
12425;SDS011;6277;49.824;9.562;2024-02-15T11:07:29;1.58;;;0.65;;
12425;SDS011;6277;49.824;9.562;2024-02-15T11:09:56;2.25;;;0.80;;
12425;SDS011;6277;49.824;9.562;2024-02-15T11:12:22;1.45;;;0.80;;
12425;SDS011;6277;49.824;9.562;2024-02-15T11:14:50;1.63;;;0.80;;
12425;SDS011;6277;49.824;9.562;2024-02-15T11:20:07;1.67;;;0.68;;
12425;SDS011;6277;49.824;9.562;2024-02-15T11:22:35;1.45;;;0.60;;
12425;SDS011;6277;49.824;9.562;2024-02-15T11:25:02;1.52;;;0.80;;
12425;SDS011;6277;49.824;9.562;2024-02-15T11:27:34;1.65;;;0.80;;
12425;SDS011;6277;49.824;9.562;2024-02-15T11:30:02;1.33;;;0.60;;
12425;SDS011;6277;49.824;9.562;2024-02-15T11:32:46;1.00;;;0.70;;
12425;SDS011;6277;49.824;9.562;2024-02-15T11:35:14;1.55;;;0.77;;
12425;SDS011;6277;49.824;9.562;2024-02-15T11:40:16;1.58;;;0.60;;
12425;SDS011;6277;49.824;9.562;2024-02-15T11:42:42;0.93;;;0.60;;
12425;SDS011;6277;49.824;9.562;2024-02-15T11:45:08;1.67;;;0.70;;
12425;SDS011;6277;49.824;9.562;2024-02-15T11:47:38;1.42;;;0.45;;
12425;SDS011;6277;49.824;9.562;2024-02-15T11:50:07;1.30;;;0.50;;
12425;SDS011;6277;49.824;9.562;2024-02-15T11:52:37;1.55;;;0.52;;
12425;SDS011;6277;49.824;9.562;2024-02-15T11:55:06;2.03;;;0.90;;
12425;SDS011;6277;49.824;9.562;2024-02-15T11:57:36;1.17;;;0.50;;
12425;SDS011;6277;49.824;9.562;2024-02-15T12:00:18;1.33;;;0.50;;
12425;SDS011;6277;49.824;9.562;2024-02-15T12:03:03;0.90;;;0.40;;
12425;SDS011;6277;49.824;9.562;2024-02-15T12:05:48;1.42;;;0.55;;
12425;SDS011;6277;49.824;9.562;2024-02-15T12:08:33;1.65;;;0.60;;
12425;SDS011;6277;49.824;9.562;2024-02-15T12:11:18;1.85;;;0.50;;
12425;SDS011;6277;49.824;9.562;2024-02-15T12:14:02;2.42;;;0.50;;
12425;SDS011;6277;49.824;9.562;2024-02-15T12:19:31;1.27;;;0.38;;
12425;SDS011;6277;49.824;9.562;2024-02-15T12:21:56;2.28;;;0.70;;
12425;SDS011;6277;49.824;9.562;2024-02-15T12:24:24;0.70;;;0.32;;
12425;SDS011;6277;49.824;9.562;2024-02-15T12:26:52;1.45;;;0.47;;
12425;SDS011;6277;49.824;9.562;2024-02-15T12:29:26;1.15;;;0.40;;
12425;SDS011;6277;49.824;9.562;2024-02-15T12:31:51;1.73;;;0.40;;
12425;SDS011;6277;49.824;9.562;2024-02-15T12:34:18;1.60;;;0.40;;
12425;SDS011;6277;49.824;9.562;2024-02-15T12:36:45;1.83;;;0.47;;
12425;SDS011;6277;49.824;9.562;2024-02-15T12:39:14;1.60;;;0.47;;
12425;SDS011;6277;49.824;9.562;2024-02-15T12:41:49;1.25;;;0.35;;
12425;SDS011;6277;49.824;9.562;2024-02-15T12:44:18;1.23;;;0.40;;
12425;SDS011;6277;49.824;9.562;2024-02-15T12:46:53;2.00;;;0.40;;
12425;SDS011;6277;49.824;9.562;2024-02-15T12:52:32;1.00;;;0.30;;
12425;SDS011;6277;49.824;9.562;2024-02-15T12:54:49;0.88;;;0.40;;
12425;SDS011;6277;49.824;9.562;2024-02-15T12:57:15;1.92;;;0.38;;
12425;SDS011;6277;49.824;9.562;2024-02-15T12:59:41;1.98;;;0.45;;
12425;SDS011;6277;49.824;9.562;2024-02-15T13:02:07;1.52;;;0.35;;
12425;SDS011;6277;49.824;9.562;2024-02-15T13:04:32;0.60;;;0.30;;
12425;SDS011;6277;49.824;9.562;2024-02-15T13:06:58;1.13;;;0.40;;
12425;SDS011;6277;49.824;9.562;2024-02-15T13:09:23;0.68;;;0.40;;
12425;SDS011;6277;49.824;9.562;2024-02-15T13:11:49;1.85;;;0.50;;
12425;SDS011;6277;49.824;9.562;2024-02-15T13:14:15;0.85;;;0.20;;
12425;SDS011;6277;49.824;9.562;2024-02-15T13:16:40;1.50;;;0.30;;
12425;SDS011;6277;49.824;9.562;2024-02-15T13:19:08;0.77;;;0.30;;
12425;SDS011;6277;49.824;9.562;2024-02-15T13:21:33;0.88;;;0.25;;
12425;SDS011;6277;49.824;9.562;2024-02-15T13:23:59;2.22;;;0.30;;
12425;SDS011;6277;49.824;9.562;2024-02-15T13:26:29;0.55;;;0.30;;
12425;SDS011;6277;49.824;9.562;2024-02-15T13:28:55;1.48;;;0.47;;
12425;SDS011;6277;49.824;9.562;2024-02-15T13:31:21;0.85;;;0.30;;
12425;SDS011;6277;49.824;9.562;2024-02-15T13:33:47;1.08;;;0.40;;
12425;SDS011;6277;49.824;9.562;2024-02-15T13:36:13;2.60;;;0.60;;
12425;SDS011;6277;49.824;9.562;2024-02-15T13:38:40;3.53;;;0.38;;
12425;SDS011;6277;49.824;9.562;2024-02-15T13:41:07;1.75;;;0.40;;
12425;SDS011;6277;49.824;9.562;2024-02-15T13:43:33;1.13;;;0.38;;
12425;SDS011;6277;49.824;9.562;2024-02-15T13:45:59;1.38;;;0.90;;
12425;SDS011;6277;49.824;9.562;2024-02-15T13:48:25;2.80;;;0.95;;
12425;SDS011;6277;49.824;9.562;2024-02-15T13:50:55;1.45;;;0.70;;
12425;SDS011;6277;49.824;9.562;2024-02-15T13:53:21;1.83;;;0.60;;
12425;SDS011;6277;49.824;9.562;2024-02-15T13:55:50;1.77;;;0.50;;
12425;SDS011;6277;49.824;9.562;2024-02-15T13:58:17;1.05;;;0.30;;
12425;SDS011;6277;49.824;9.562;2024-02-15T14:00:43;1.23;;;0.40;;
12425;SDS011;6277;49.824;9.562;2024-02-15T14:03:09;1.48;;;0.50;;
12425;SDS011;6277;49.824;9.562;2024-02-15T14:05:36;0.90;;;0.35;;
12425;SDS011;6277;49.824;9.562;2024-02-15T14:08:04;0.98;;;0.30;;
12425;SDS011;6277;49.824;9.562;2024-02-15T14:10:31;0.90;;;0.45;;
12425;SDS011;6277;49.824;9.562;2024-02-15T14:12:58;1.33;;;0.35;;
12425;SDS011;6277;49.824;9.562;2024-02-15T14:15:25;1.75;;;0.52;;
12425;SDS011;6277;49.824;9.562;2024-02-15T14:17:51;1.17;;;0.40;;
12425;SDS011;6277;49.824;9.562;2024-02-15T14:20:17;1.35;;;0.50;;
12425;SDS011;6277;49.824;9.562;2024-02-15T14:22:44;1.00;;;0.32;;
12425;SDS011;6277;49.824;9.562;2024-02-15T14:25:18;1.25;;;0.38;;
12425;SDS011;6277;49.824;9.562;2024-02-15T14:27:44;0.55;;;0.30;;
12425;SDS011;6277;49.824;9.562;2024-02-15T14:30:12;1.50;;;0.40;;
12425;SDS011;6277;49.824;9.562;2024-02-15T14:32:56;1.25;;;0.40;;
12425;SDS011;6277;49.824;9.562;2024-02-15T14:35:25;1.38;;;0.50;;
12425;SDS011;6277;49.824;9.562;2024-02-15T14:37:58;1.33;;;0.40;;
12425;SDS011;6277;49.824;9.562;2024-02-15T14:40:24;1.38;;;0.47;;
12425;SDS011;6277;49.824;9.562;2024-02-15T14:42:49;1.40;;;0.40;;
12425;SDS011;6277;49.824;9.562;2024-02-15T14:45:15;0.80;;;0.40;;
12425;SDS011;6277;49.824;9.562;2024-02-15T14:47:40;1.25;;;0.32;;
12425;SDS011;6277;49.824;9.562;2024-02-15T14:50:09;2.58;;;0.40;;
12425;SDS011;6277;49.824;9.562;2024-02-15T14:52:35;0.70;;;0.32;;
12425;SDS011;6277;49.824;9.562;2024-02-15T14:55:02;1.33;;;0.32;;
12425;SDS011;6277;49.824;9.562;2024-02-15T14:57:33;1.70;;;0.50;;
12425;SDS011;6277;49.824;9.562;2024-02-15T14:59:59;1.55;;;0.60;;
12425;SDS011;6277;49.824;9.562;2024-02-15T15:02:25;1.60;;;0.75;;
12425;SDS011;6277;49.824;9.562;2024-02-15T15:04:50;1.40;;;0.60;;
12425;SDS011;6277;49.824;9.562;2024-02-15T15:07:35;1.20;;;0.68;;
12425;SDS011;6277;49.824;9.562;2024-02-15T15:10:19;2.60;;;0.80;;
12425;SDS011;6277;49.824;9.562;2024-02-15T15:15:28;1.52;;;0.65;;
12425;SDS011;6277;49.824;9.562;2024-02-15T15:17:54;1.63;;;0.57;;
12425;SDS011;6277;49.824;9.562;2024-02-15T15:20:20;1.13;;;0.52;;
12425;SDS011;6277;49.824;9.562;2024-02-15T15:22:46;1.60;;;0.57;;
12425;SDS011;6277;49.824;9.562;2024-02-15T15:25:11;1.63;;;0.70;;
12425;SDS011;6277;49.824;9.562;2024-02-15T15:27:37;1.20;;;0.60;;